Time;durP1;ratioP1;P1;durP2;ratioP2;P2;SDS_P1;SDS_P2;PMS_P1;PMS_P2;Temp;Humidity;BMP_temperature;BMP_pressure;BME280_temperature;BME280_humidity;BME280_pressure;Samples;Min_cycle;Max_cycle;Signal;HPM_P1;HPM_P2
2023/12/04 00:00:49;;;;;;;34.25;20.10;;;;;;;;;;5004882;28;20453;-77
2023/12/04 00:03:15;;;;;;;33.65;18.88;;;;;;;;;;5002444;28;20041;-78
2023/12/04 00:05:45;;;;;;;34.30;19.85;;;;;;;;;;5003235;28;20053;-78
2023/12/04 00:08:11;;;;;;;36.72;21.15;;;;;;;;;;5000511;28;20061;-78
2023/12/04 00:10:37;;;;;;;33.13;19.08;;;;;;;;;;5010422;28;20053;-78
2023/12/04 00:13:03;;;;;;;33.90;19.52;;;;;;;;;;5001638;28;20101;-78
2023/12/04 00:15:29;;;;;;;37.00;19.55;;;;;;;;;;4997983;28;20045;-78
2023/12/04 00:17:55;;;;;;;35.22;19.55;;;;;;;;;;5009415;28;20058;-78
2023/12/04 00:20:21;;;;;;;35.85;19.98;;;;;;;;;;5011323;28;20050;-78
2023/12/04 00:22:47;;;;;;;37.72;20.55;;;;;;;;;;5003880;28;20046;-78
2023/12/04 00:25:14;;;;;;;35.90;19.60;;;;;;;;;;5009391;28;20140;-78
2023/12/04 00:27:40;;;;;;;34.72;20.33;;;;;;;;;;5009321;28;20484;-77
2023/12/04 00:30:06;;;;;;;35.13;20.15;;;;;;;;;;5009472;28;20541;-77
2023/12/04 00:32:33;;;;;;;34.75;19.55;;;;;;;;;;5009720;28;20050;-78
2023/12/04 00:34:59;;;;;;;36.17;20.63;;;;;;;;;;5012384;28;20046;-78
2023/12/04 00:37:25;;;;;;;37.50;20.90;;;;;;;;;;5014804;28;20128;-78
2023/12/04 00:39:51;;;;;;;34.33;19.25;;;;;;;;;;5014572;28;20491;-78
2023/12/04 00:42:17;;;;;;;38.35;20.45;;;;;;;;;;5014668;28;20037;-78
2023/12/04 00:44:43;;;;;;;40.28;20.65;;;;;;;;;;5014731;28;20046;-76
2023/12/04 00:47:09;;;;;;;35.75;19.58;;;;;;;;;;5014827;28;20053;-78
2023/12/04 00:49:37;;;;;;;38.25;20.48;;;;;;;;;;5009171;28;20050;-78
2023/12/04 00:52:03;;;;;;;35.22;20.23;;;;;;;;;;5006093;28;20042;-78
2023/12/04 00:54:29;;;;;;;33.25;19.13;;;;;;;;;;5008406;28;20455;-77
2023/12/04 00:56:55;;;;;;;35.67;20.33;;;;;;;;;;5007435;28;20070;-77
2023/12/04 00:59:21;;;;;;;35.78;19.15;;;;;;;;;;5002755;28;20070;-78
2023/12/04 01:01:47;;;;;;;38.20;20.75;;;;;;;;;;5000873;28;20053;-78
2023/12/04 01:04:13;;;;;;;33.47;19.38;;;;;;;;;;5012095;28;20045;-78
2023/12/04 01:06:39;;;;;;;35.33;19.38;;;;;;;;;;5014137;28;20129;-78
2023/12/04 01:09:05;;;;;;;37.40;20.83;;;;;;;;;;5013239;28;20041;-78
2023/12/04 01:11:31;;;;;;;37.22;20.80;;;;;;;;;;5015812;28;20046;-78
2023/12/04 01:13:57;;;;;;;38.90;20.50;;;;;;;;;;5015108;28;20046;-78
2023/12/04 01:16:23;;;;;;;38.03;21.40;;;;;;;;;;5009774;28;20049;-78
2023/12/04 01:18:49;;;;;;;37.80;20.92;;;;;;;;;;5013333;28;20062;-78
2023/12/04 01:21:16;;;;;;;38.28;20.45;;;;;;;;;;5005826;28;20062;-77
2023/12/04 01:23:42;;;;;;;35.92;20.42;;;;;;;;;;5011919;28;20046;-77
2023/12/04 01:26:08;;;;;;;38.47;21.00;;;;;;;;;;5010726;28;20048;-77
2023/12/04 01:28:34;;;;;;;36.00;20.20;;;;;;;;;;4999354;28;20454;-78
2023/12/04 01:31:00;;;;;;;36.25;21.17;;;;;;;;;;5011566;28;20046;-78
2023/12/04 01:33:26;;;;;;;38.45;20.38;;;;;;;;;;5013510;28;20046;-78
2023/12/04 01:35:52;;;;;;;35.95;20.38;;;;;;;;;;5012776;28;20403;-78
2023/12/04 01:38:18;;;;;;;36.75;20.17;;;;;;;;;;5013929;28;20050;-78
2023/12/04 01:40:44;;;;;;;33.25;19.05;;;;;;;;;;5011270;28;20049;-78
2023/12/04 01:43:10;;;;;;;36.33;20.33;;;;;;;;;;5004814;28;20054;-78
2023/12/04 01:45:36;;;;;;;37.22;21.10;;;;;;;;;;5009420;28;20082;-78
2023/12/04 01:48:03;;;;;;;39.30;20.17;;;;;;;;;;5001324;28;20061;-78
2023/12/04 01:50:29;;;;;;;42.25;21.65;;;;;;;;;;5012825;28;20451;-78
2023/12/04 01:52:56;;;;;;;37.63;20.85;;;;;;;;;;5009336;28;20439;-77
2023/12/04 01:55:22;;;;;;;39.22;21.00;;;;;;;;;;4997907;28;20060;-77
2023/12/04 01:57:48;;;;;;;37.45;19.92;;;;;;;;;;5009104;28;20385;-77
2023/12/04 02:00:14;;;;;;;40.95;20.80;;;;;;;;;;5008615;28;20124;-77
2023/12/04 02:02:44;;;;;;;37.20;20.38;;;;;;;;;;5007441;28;20117;-77
2023/12/04 02:05:12;;;;;;;36.58;18.58;;;;;;;;;;5007001;28;20413;-78
2023/12/04 02:07:38;;;;;;;37.80;20.92;;;;;;;;;;5001046;28;20042;-78
2023/12/04 02:10:04;;;;;;;35.28;19.90;;;;;;;;;;5007316;28;20064;-77
2023/12/04 02:12:30;;;;;;;37.55;20.02;;;;;;;;;;5014243;28;20068;-77
2023/12/04 02:14:57;;;;;;;36.88;20.75;;;;;;;;;;5001543;28;20043;-77
2023/12/04 02:17:23;;;;;;;40.17;21.13;;;;;;;;;;5011153;28;20193;-77
2023/12/04 02:19:49;;;;;;;35.58;19.50;;;;;;;;;;5004693;28;20050;-77
2023/12/04 02:22:18;;;;;;;34.63;19.65;;;;;;;;;;5002244;28;20038;-78
2023/12/04 02:24:44;;;;;;;36.70;20.33;;;;;;;;;;5005454;28;20050;-77
2023/12/04 02:27:16;;;;;;;37.10;20.20;;;;;;;;;;5013554;28;20038;-77
2023/12/04 02:29:47;;;;;;;35.25;19.88;;;;;;;;;;5009724;28;20125;-77
2023/12/04 02:32:16;;;;;;;35.90;19.27;;;;;;;;;;5010352;28;20046;-77
2023/12/04 02:34:43;;;;;;;33.83;18.88;;;;;;;;;;5010530;28;20224;-77
2023/12/04 02:37:10;;;;;;;38.17;20.77;;;;;;;;;;5013074;28;20092;-77
2023/12/04 02:39:37;;;;;;;35.20;19.52;;;;;;;;;;5012893;28;20479;-77
2023/12/04 02:42:03;;;;;;;36.58;20.58;;;;;;;;;;5012956;28;20046;-78
2023/12/04 02:44:29;;;;;;;33.95;19.02;;;;;;;;;;4993478;28;20050;-77
2023/12/04 02:46:55;;;;;;;38.60;20.58;;;;;;;;;;5002227;28;20070;-77
2023/12/04 02:49:21;;;;;;;34.05;18.90;;;;;;;;;;5011485;28;20045;-77
2023/12/04 02:51:47;;;;;;;36.70;20.35;;;;;;;;;;5012637;28;20046;-77
2023/12/04 02:54:13;;;;;;;35.95;20.05;;;;;;;;;;4998944;28;20050;-77
2023/12/04 02:56:39;;;;;;;37.47;20.63;;;;;;;;;;5013382;28;20049;-77
2023/12/04 02:59:05;;;;;;;36.78;20.50;;;;;;;;;;5010865;28;20042;-77
2023/12/04 03:01:31;;;;;;;33.65;19.85;;;;;;;;;;4999094;28;20101;-77
2023/12/04 03:03:57;;;;;;;36.58;19.98;;;;;;;;;;4993952;28;20080;-77
2023/12/04 03:06:23;;;;;;;36.28;20.67;;;;;;;;;;4997272;28;20502;-77
2023/12/04 03:08:49;;;;;;;35.47;19.98;;;;;;;;;;5012209;28;20056;-77
2023/12/04 03:11:15;;;;;;;34.83;19.88;;;;;;;;;;5013113;28;20085;-77
2023/12/04 03:13:41;;;;;;;34.33;20.30;;;;;;;;;;5013205;28;20092;-77
2023/12/04 03:16:15;;;;;;;33.03;18.73;;;;;;;;;;5000615;28;20054;-77
2023/12/04 03:18:41;;;;;;;32.40;20.45;;;;;;;;;;5003254;28;20068;-77
2023/12/04 03:21:07;;;;;;;34.58;19.20;;;;;;;;;;5012465;28;20045;-77
2023/12/04 03:23:33;;;;;;;35.97;19.88;;;;;;;;;;4998530;28;20046;-77
2023/12/04 03:25:59;;;;;;;36.83;20.73;;;;;;;;;;5005992;28;20046;-77
2023/12/04 03:28:26;;;;;;;34.03;19.85;;;;;;;;;;5011577;28;20053;-77
2023/12/04 03:30:52;;;;;;;33.30;19.33;;;;;;;;;;5008977;28;20048;-77
2023/12/04 03:33:18;;;;;;;32.67;19.45;;;;;;;;;;5010343;28;20049;-77
2023/12/04 03:35:44;;;;;;;32.42;19.45;;;;;;;;;;5010885;28;20084;-77
2023/12/04 03:38:10;;;;;;;33.42;20.20;;;;;;;;;;5012592;28;20065;-77
2023/12/04 03:40:36;;;;;;;34.22;19.95;;;;;;;;;;5006954;28;20034;-77
2023/12/04 03:43:02;;;;;;;34.95;20.05;;;;;;;;;;4993501;28;21216;-77
2023/12/04 03:45:28;;;;;;;33.70;20.30;;;;;;;;;;5007421;28;20500;-77
2023/12/04 03:47:55;;;;;;;36.47;20.25;;;;;;;;;;5012148;28;20168;-77
2023/12/04 03:50:21;;;;;;;31.98;19.33;;;;;;;;;;5006367;28;20424;-77
2023/12/04 03:52:47;;;;;;;32.70;19.35;;;;;;;;;;5011373;28;20496;-77
2023/12/04 03:55:13;;;;;;;32.70;19.55;;;;;;;;;;5011109;28;20042;-77
2023/12/04 03:57:39;;;;;;;31.17;18.83;;;;;;;;;;5000751;28;20057;-77
2023/12/04 04:00:06;;;;;;;30.92;18.77;;;;;;;;;;5002830;28;20052;-78
2023/12/04 04:02:32;;;;;;;32.08;19.58;;;;;;;;;;5000330;28;20037;-77
2023/12/04 04:04:58;;;;;;;35.08;20.13;;;;;;;;;;5008564;28;20054;-77
2023/12/04 04:07:24;;;;;;;32.78;18.98;;;;;;;;;;5007176;28;20042;-77
2023/12/04 04:09:50;;;;;;;33.38;19.42;;;;;;;;;;5003372;28;20065;-78
2023/12/04 04:12:16;;;;;;;34.38;19.20;;;;;;;;;;5003121;28;20045;-77
2023/12/04 04:14:42;;;;;;;32.40;19.33;;;;;;;;;;5015678;28;20081;-77
2023/12/04 04:17:08;;;;;;;32.40;19.33;;;;;;;;;;5010757;28;20065;-77
2023/12/04 04:19:34;;;;;;;35.03;19.45;;;;;;;;;;5011144;28;20046;-77
2023/12/04 04:22:00;;;;;;;35.45;19.52;;;;;;;;;;5006910;28;20142;-77
2023/12/04 04:24:26;;;;;;;33.42;19.00;;;;;;;;;;5011286;28;20061;-77
2023/12/04 04:26:52;;;;;;;31.65;19.45;;;;;;;;;;5011775;28;20479;-77
2023/12/04 04:29:18;;;;;;;34.25;19.35;;;;;;;;;;5013248;28;20521;-77
2023/12/04 04:31:44;;;;;;;35.85;20.38;;;;;;;;;;5012687;28;20404;-77
2023/12/04 04:34:10;;;;;;;32.70;19.00;;;;;;;;;;5012239;28;20484;-77
2023/12/04 04:36:36;;;;;;;32.70;19.85;;;;;;;;;;5001772;28;20403;-78
2023/12/04 04:39:03;;;;;;;31.90;18.25;;;;;;;;;;5011120;28;20046;-78
2023/12/04 04:41:29;;;;;;;33.88;19.42;;;;;;;;;;5014745;28;20046;-78
2023/12/04 04:43:55;;;;;;;32.95;18.83;;;;;;;;;;5015393;28;20057;-77
2023/12/04 04:46:21;;;;;;;32.15;18.50;;;;;;;;;;5010997;28;20045;-77
2023/12/04 04:48:47;;;;;;;31.42;18.45;;;;;;;;;;5014933;28;20045;-77
2023/12/04 04:51:13;;;;;;;33.15;19.20;;;;;;;;;;5015832;28;20057;-77
2023/12/04 04:53:39;;;;;;;33.40;19.33;;;;;;;;;;5015292;28;20050;-77
2023/12/04 04:56:05;;;;;;;33.20;19.67;;;;;;;;;;5015279;28;20052;-77
2023/12/04 04:58:31;;;;;;;32.75;18.83;;;;;;;;;;5002779;28;20041;-77
2023/12/04 05:00:57;;;;;;;30.77;18.50;;;;;;;;;;5007873;28;20060;-77
2023/12/04 05:03:23;;;;;;;34.42;19.58;;;;;;;;;;5015401;28;20049;-77
2023/12/04 05:05:49;;;;;;;29.73;17.75;;;;;;;;;;4997308;28;20104;-77
2023/12/04 05:08:15;;;;;;;32.80;19.13;;;;;;;;;;5014747;28;20060;-77
2023/12/04 05:10:42;;;;;;;32.22;17.77;;;;;;;;;;5014998;28;20045;-77
2023/12/04 05:13:08;;;;;;;33.88;19.13;;;;;;;;;;5015213;28;20053;-77
2023/12/04 05:15:34;;;;;;;30.60;18.17;;;;;;;;;;5015327;28;20080;-77
2023/12/04 05:18:00;;;;;;;29.33;17.02;;;;;;;;;;5012273;28;20058;-77
2023/12/04 05:20:26;;;;;;;28.85;17.88;;;;;;;;;;5009450;28;20100;-77
2023/12/04 05:22:52;;;;;;;30.45;17.60;;;;;;;;;;5002994;28;20050;-77
2023/12/04 05:25:19;;;;;;;30.02;16.88;;;;;;;;;;5012719;28;20046;-77
2023/12/04 05:27:45;;;;;;;27.80;17.38;;;;;;;;;;5012862;28;20455;-78
2023/12/04 05:30:11;;;;;;;29.52;17.80;;;;;;;;;;5002244;28;20088;-77
2023/12/04 05:32:37;;;;;;;28.33;17.02;;;;;;;;;;5012466;28;20049;-77
2023/12/04 05:35:04;;;;;;;29.10;16.42;;;;;;;;;;5014030;28;20042;-77
2023/12/04 05:37:30;;;;;;;29.30;17.77;;;;;;;;;;5006785;28;20084;-78
2023/12/04 05:39:56;;;;;;;29.25;17.38;;;;;;;;;;5008625;28;20081;-77
2023/12/04 05:42:22;;;;;;;27.27;16.65;;;;;;;;;;5014324;28;20042;-76
2023/12/04 05:44:48;;;;;;;26.02;15.77;;;;;;;;;;5014124;28;20053;-77
2023/12/04 05:47:14;;;;;;;27.23;17.02;;;;;;;;;;5006183;28;20054;-77
2023/12/04 05:49:40;;;;;;;27.05;15.13;;;;;;;;;;5000121;28;20483;-77
2023/12/04 05:52:06;;;;;;;27.60;16.40;;;;;;;;;;5005282;28;20426;-77
2023/12/04 05:54:32;;;;;;;29.27;17.48;;;;;;;;;;5001359;28;20121;-77
2023/12/04 05:56:59;;;;;;;29.20;17.08;;;;;;;;;;5001811;28;20050;-78
2023/12/04 05:59:25;;;;;;;29.38;16.83;;;;;;;;;;5013558;28;20046;-78
2023/12/04 06:01:51;;;;;;;33.22;18.88;;;;;;;;;;5012887;28;20045;-78
2023/12/04 06:04:17;;;;;;;28.30;16.45;;;;;;;;;;5012271;28;20052;-77
2023/12/04 06:06:43;;;;;;;28.88;17.13;;;;;;;;;;5006470;28;20604;-77
2023/12/04 06:09:09;;;;;;;26.30;16.65;;;;;;;;;;5011595;28;20047;-77
2023/12/04 06:11:36;;;;;;;30.30;17.95;;;;;;;;;;5008733;28;20498;-77
2023/12/04 06:14:02;;;;;;;28.95;16.88;;;;;;;;;;5013029;28;20054;-77
2023/12/04 06:16:28;;;;;;;29.13;17.20;;;;;;;;;;4995519;28;20108;-77
2023/12/04 06:18:54;;;;;;;30.15;17.58;;;;;;;;;;5010186;28;20055;-77
2023/12/04 06:21:20;;;;;;;28.25;16.38;;;;;;;;;;5001871;28;20483;-78
2023/12/04 06:23:47;;;;;;;29.63;16.65;;;;;;;;;;5003712;28;20052;-77
2023/12/04 06:26:13;;;;;;;28.80;17.25;;;;;;;;;;5001432;28;20515;-77
2023/12/04 06:28:39;;;;;;;29.98;18.10;;;;;;;;;;4999435;28;20077;-78
2023/12/04 06:31:05;;;;;;;29.48;17.55;;;;;;;;;;5006306;28;20046;-77
2023/12/04 06:33:32;;;;;;;26.88;17.13;;;;;;;;;;5002147;28;20041;-77
2023/12/04 06:35:58;;;;;;;30.02;18.00;;;;;;;;;;5012843;28;20522;-77
2023/12/04 06:38:25;;;;;;;28.98;17.52;;;;;;;;;;5012120;28;20490;-77
2023/12/04 06:40:51;;;;;;;26.42;16.45;;;;;;;;;;5001488;28;20050;-77
2023/12/04 06:43:18;;;;;;;29.65;17.27;;;;;;;;;;4995246;28;20097;-77
2023/12/04 06:45:45;;;;;;;27.48;16.25;;;;;;;;;;4995458;28;20046;-77
2023/12/04 06:48:13;;;;;;;25.52;16.42;;;;;;;;;;5001964;28;20408;-77
2023/12/04 06:50:40;;;;;;;27.02;17.35;;;;;;;;;;5002148;28;20050;-77
2023/12/04 06:53:06;;;;;;;25.58;14.70;;;;;;;;;;5012210;28;20466;-77
2023/12/04 06:55:32;;;;;;;24.42;16.10;;;;;;;;;;5013384;28;20045;-77
2023/12/04 06:57:58;;;;;;;27.35;16.48;;;;;;;;;;5013544;28;20050;-77
2023/12/04 07:00:24;;;;;;;26.80;16.08;;;;;;;;;;5012324;28;20050;-77
2023/12/04 07:02:51;;;;;;;26.33;16.35;;;;;;;;;;5001161;28;20050;-77
2023/12/04 07:05:17;;;;;;;26.48;15.43;;;;;;;;;;5000328;28;20074;-77
2023/12/04 07:07:43;;;;;;;26.75;16.00;;;;;;;;;;4996191;28;20046;-77
2023/12/04 07:10:14;;;;;;;26.63;15.70;;;;;;;;;;5012140;28;20038;-77
2023/12/04 07:12:40;;;;;;;24.30;15.65;;;;;;;;;;5004894;28;20046;-77
2023/12/04 07:15:07;;;;;;;25.40;15.38;;;;;;;;;;5009269;28;20124;-77
2023/12/04 07:17:33;;;;;;;24.58;14.65;;;;;;;;;;5010112;28;21429;-77
2023/12/04 07:19:59;;;;;;;25.95;15.80;;;;;;;;;;5007867;28;20057;-77
2023/12/04 07:22:25;;;;;;;24.65;15.30;;;;;;;;;;5004813;28;20064;-78
2023/12/04 07:24:51;;;;;;;24.02;15.45;;;;;;;;;;5006017;28;20050;-78
2023/12/04 07:27:17;;;;;;;24.55;15.75;;;;;;;;;;4994027;28;20050;-78
2023/12/04 07:29:43;;;;;;;24.55;14.73;;;;;;;;;;5006829;28;20092;-78
2023/12/04 07:32:09;;;;;;;23.52;14.70;;;;;;;;;;5000201;28;20053;-78
2023/12/04 07:34:36;;;;;;;20.23;12.32;;;;;;;;;;5009325;28;20042;-78
2023/12/04 07:37:02;;;;;;;25.00;14.43;;;;;;;;;;5012653;28;20075;-78
2023/12/04 07:39:29;;;;;;;24.60;15.48;;;;;;;;;;5010258;28;20446;-77
2023/12/04 07:41:55;;;;;;;22.80;14.48;;;;;;;;;;5002019;28;20054;-78
2023/12/04 07:44:21;;;;;;;23.73;14.55;;;;;;;;;;5007208;28;20041;-77
2023/12/04 07:46:47;;;;;;;23.42;14.15;;;;;;;;;;5014904;28;20046;-77
2023/12/04 07:49:13;;;;;;;24.65;14.15;;;;;;;;;;5000914;28;20054;-77
2023/12/04 07:51:39;;;;;;;22.55;13.50;;;;;;;;;;5014715;28;20157;-77
2023/12/04 07:54:05;;;;;;;21.80;13.85;;;;;;;;;;5014877;28;20085;-78
2023/12/04 07:56:31;;;;;;;21.75;13.40;;;;;;;;;;5011806;28;20053;-77
2023/12/04 07:58:57;;;;;;;26.60;14.00;;;;;;;;;;5005624;28;20046;-76
2023/12/04 08:01:24;;;;;;;23.08;13.75;;;;;;;;;;5011547;28;20042;-78
2023/12/04 08:03:50;;;;;;;23.83;13.40;;;;;;;;;;4990609;28;20052;-78
2023/12/04 08:06:18;;;;;;;21.13;12.65;;;;;;;;;;5013237;28;20356;-78
2023/12/04 08:08:44;;;;;;;20.70;12.85;;;;;;;;;;5015293;28;20069;-78
2023/12/04 08:11:11;;;;;;;19.73;12.15;;;;;;;;;;5015543;28;20402;-78
2023/12/04 08:13:39;;;;;;;20.70;12.88;;;;;;;;;;5008460;28;20061;-78
2023/12/04 08:16:05;;;;;;;18.38;12.02;;;;;;;;;;5015530;28;20046;-78
2023/12/04 08:18:31;;;;;;;19.95;11.38;;;;;;;;;;5015746;28;20065;-78
2023/12/04 08:21:00;;;;;;;19.98;12.90;;;;;;;;;;5015071;28;20506;-78
2023/12/04 08:23:27;;;;;;;21.00;12.43;;;;;;;;;;5014639;28;20483;-77
2023/12/04 08:25:53;;;;;;;20.90;12.95;;;;;;;;;;5015744;28;20049;-77
2023/12/04 08:28:19;;;;;;;20.05;12.85;;;;;;;;;;5014976;28;20058;-77
2023/12/04 08:30:45;;;;;;;21.00;12.88;;;;;;;;;;5014841;28;20058;-78
2023/12/04 08:33:11;;;;;;;21.02;13.20;;;;;;;;;;5014099;28;20057;-78
2023/12/04 08:35:37;;;;;;;20.10;12.70;;;;;;;;;;4997751;28;20053;-77
2023/12/04 08:38:03;;;;;;;18.40;11.85;;;;;;;;;;5014495;28;20514;-78
2023/12/04 08:40:29;;;;;;;18.63;12.05;;;;;;;;;;5013907;28;20048;-77
2023/12/04 08:42:55;;;;;;;22.20;12.75;;;;;;;;;;5015260;28;20073;-78
2023/12/04 08:45:21;;;;;;;19.52;11.60;;;;;;;;;;5010396;28;20062;-78
2023/12/04 08:47:48;;;;;;;19.85;11.82;;;;;;;;;;5009297;28;20447;-78
2023/12/04 08:50:15;;;;;;;19.67;11.85;;;;;;;;;;5008585;28;20054;-78
2023/12/04 08:52:41;;;;;;;19.80;11.82;;;;;;;;;;5013545;28;20045;-78
2023/12/04 08:55:07;;;;;;;18.77;11.07;;;;;;;;;;5012675;28;20053;-77
2023/12/04 08:57:33;;;;;;;21.00;11.65;;;;;;;;;;5007944;28;20077;-76
2023/12/04 08:59:59;;;;;;;18.42;11.93;;;;;;;;;;5010948;28;20096;-74
2023/12/04 09:02:26;;;;;;;18.35;10.82;;;;;;;;;;5003268;28;20507;-75
2023/12/04 09:04:52;;;;;;;17.35;10.73;;;;;;;;;;5012645;28;20442;-75
2023/12/04 09:07:18;;;;;;;20.83;11.45;;;;;;;;;;5014289;28;20369;-75
2023/12/04 09:09:44;;;;;;;17.15;11.30;;;;;;;;;;5003841;28;20120;-74
2023/12/04 09:12:10;;;;;;;20.30;11.43;;;;;;;;;;5007260;28;20041;-75
2023/12/04 09:14:36;;;;;;;17.17;10.52;;;;;;;;;;5006158;28;20053;-75
2023/12/04 09:17:03;;;;;;;16.13;10.38;;;;;;;;;;5011906;28;20115;-76
2023/12/04 09:19:29;;;;;;;18.65;10.32;;;;;;;;;;5011425;28;20373;-76
2023/12/04 09:21:57;;;;;;;17.67;11.43;;;;;;;;;;5010823;28;20522;-74
2023/12/04 09:24:23;;;;;;;17.42;10.50;;;;;;;;;;5006768;28;20077;-73
2023/12/04 09:26:50;;;;;;;16.25;9.95;;;;;;;;;;5013912;28;20058;-73
2023/12/04 09:29:16;;;;;;;15.98;10.30;;;;;;;;;;5014490;28;20494;-74
2023/12/04 09:31:42;;;;;;;16.75;10.60;;;;;;;;;;5005656;28;20042;-74
2023/12/04 09:34:08;;;;;;;16.58;10.25;;;;;;;;;;4996004;28;20050;-73
2023/12/04 09:36:35;;;;;;;17.42;10.52;;;;;;;;;;5005004;28;20131;-74
2023/12/04 09:39:01;;;;;;;15.98;10.27;;;;;;;;;;5012769;28;20056;-75
2023/12/04 09:41:27;;;;;;;17.48;10.02;;;;;;;;;;5010291;28;20060;-74
2023/12/04 09:43:53;;;;;;;17.45;10.32;;;;;;;;;;5014008;28;20089;-73
2023/12/04 09:46:20;;;;;;;16.95;9.48;;;;;;;;;;5014142;28;20069;-74
2023/12/04 09:48:47;;;;;;;16.40;9.65;;;;;;;;;;5005691;28;20168;-74
2023/12/04 09:51:13;;;;;;;14.65;9.10;;;;;;;;;;4994925;28;20412;-74
2023/12/04 09:53:41;;;;;;;15.02;9.18;;;;;;;;;;5008035;28;20054;-73
2023/12/04 09:56:09;;;;;;;14.88;9.35;;;;;;;;;;5014268;28;20878;-74
2023/12/04 09:58:36;;;;;;;16.20;9.88;;;;;;;;;;5014400;28;20089;-74
2023/12/04 10:01:02;;;;;;;16.00;9.70;;;;;;;;;;5006514;28;20096;-74
2023/12/04 10:03:29;;;;;;;14.90;8.77;;;;;;;;;;5005941;28;20042;-74
2023/12/04 10:05:55;;;;;;;15.35;9.50;;;;;;;;;;5013578;28;20041;-74
2023/12/04 10:08:21;;;;;;;15.70;9.30;;;;;;;;;;5013569;28;20046;-74
2023/12/04 10:10:47;;;;;;;15.50;9.27;;;;;;;;;;5013558;28;20056;-74
2023/12/04 10:13:14;;;;;;;13.85;8.68;;;;;;;;;;5012029;28;20494;-73
2023/12/04 10:15:50;;;;;;;15.80;9.52;;;;;;;;;;5013829;28;20383;-74
2023/12/04 10:18:26;;;;;;;14.40;9.50;;;;;;;;;;5012313;28;20042;-75
2023/12/04 10:20:54;;;;;;;13.18;8.25;;;;;;;;;;4996506;28;20046;-73
2023/12/04 10:23:20;;;;;;;14.95;8.52;;;;;;;;;;5001419;28;20049;-73
2023/12/04 10:25:49;;;;;;;13.18;8.52;;;;;;;;;;5008130;28;20057;-73
2023/12/04 10:28:15;;;;;;;12.95;8.80;;;;;;;;;;5013211;28;20080;-74
2023/12/04 10:30:42;;;;;;;14.38;8.77;;;;;;;;;;5012800;28;20455;-73
2023/12/04 10:33:08;;;;;;;12.90;8.60;;;;;;;;;;5012347;28;20132;-75
2023/12/04 10:35:38;;;;;;;13.32;8.55;;;;;;;;;;5006030;28;20045;-75
2023/12/04 10:38:05;;;;;;;12.98;8.73;;;;;;;;;;5013663;28;20077;-74
2023/12/04 10:40:32;;;;;;;12.95;8.07;;;;;;;;;;5012810;28;20112;-74
2023/12/04 10:43:17;;;;;;;14.32;9.20;;;;;;;;;;5005064;28;20056;-73
2023/12/04 10:45:45;;;;;;;13.85;8.05;;;;;;;;;;5011415;28;20124;-73
2023/12/04 10:48:11;;;;;;;14.02;8.40;;;;;;;;;;5011699;28;20096;-73
2023/12/04 10:50:38;;;;;;;12.75;8.82;;;;;;;;;;5016859;28;20049;-74
2023/12/04 10:53:04;;;;;;;15.80;9.02;;;;;;;;;;5012022;28;20614;-74
2023/12/04 10:55:31;;;;;;;13.63;8.38;;;;;;;;;;5018471;28;20341;-74
2023/12/04 10:57:57;;;;;;;13.70;8.20;;;;;;;;;;5012341;28;20065;-74
2023/12/04 11:00:24;;;;;;;14.35;9.35;;;;;;;;;;5007346;28;20060;-74
2023/12/04 11:02:52;;;;;;;14.75;8.57;;;;;;;;;;5003921;28;20053;-74
2023/12/04 11:05:21;;;;;;;12.23;8.20;;;;;;;;;;5007556;28;20128;-74
2023/12/04 11:08:07;;;;;;;13.73;8.30;;;;;;;;;;5007350;28;20116;-73
2023/12/04 11:10:35;;;;;;;14.18;7.80;;;;;;;;;;5008500;28;20479;-73
2023/12/04 11:13:03;;;;;;;12.43;8.13;;;;;;;;;;5002259;28;20114;-73
2023/12/04 11:15:30;;;;;;;13.10;8.35;;;;;;;;;;5011136;28;20096;-73
2023/12/04 11:18:00;;;;;;;12.50;8.20;;;;;;;;;;5003209;28;20068;-74
2023/12/04 11:20:28;;;;;;;13.90;8.70;;;;;;;;;;5001329;28;20038;-74
2023/12/04 11:22:54;;;;;;;11.88;7.88;;;;;;;;;;5008206;28;20042;-76
2023/12/04 11:25:23;;;;;;;15.70;8.82;;;;;;;;;;4996757;28;20042;-73
2023/12/04 11:27:49;;;;;;;12.02;7.40;;;;;;;;;;5008174;28;20581;-73
2023/12/04 11:30:17;;;;;;;11.57;7.68;;;;;;;;;;4999626;28;20497;-73
2023/12/04 11:32:46;;;;;;;12.80;7.95;;;;;;;;;;5005111;28;20050;-74
2023/12/04 11:35:14;;;;;;;12.70;7.60;;;;;;;;;;5012313;28;20050;-74
2023/12/04 11:37:40;;;;;;;12.25;7.93;;;;;;;;;;5009324;28;20129;-74
2023/12/04 11:40:07;;;;;;;12.13;8.15;;;;;;;;;;5008346;28;20053;-73
2023/12/04 11:42:33;;;;;;;13.00;7.95;;;;;;;;;;5003613;28;20050;-74
2023/12/04 11:44:59;;;;;;;13.68;8.50;;;;;;;;;;5012766;28;20387;-74
2023/12/04 11:47:25;;;;;;;12.63;8.00;;;;;;;;;;5008084;28;20047;-74
2023/12/04 11:49:52;;;;;;;12.52;8.60;;;;;;;;;;5006940;28;20132;-74
2023/12/04 11:52:32;;;;;;;12.70;8.10;;;;;;;;;;5002986;28;20078;-74
2023/12/04 11:55:04;;;;;;;11.73;7.95;;;;;;;;;;5009049;28;20084;-74
2023/12/04 11:57:34;;;;;;;14.40;8.45;;;;;;;;;;5007210;28;20045;-74
2023/12/04 12:00:09;;;;;;;14.10;8.63;;;;;;;;;;5008169;28;20374;-73
2023/12/04 12:02:35;;;;;;;13.02;8.02;;;;;;;;;;5006371;28;20101;-74
2023/12/04 12:05:02;;;;;;;12.75;8.55;;;;;;;;;;5007499;28;20049;-73
2023/12/04 12:07:28;;;;;;;12.77;8.38;;;;;;;;;;5010421;28;20103;-73
2023/12/04 12:09:54;;;;;;;12.80;8.85;;;;;;;;;;5011646;28;20492;-73
2023/12/04 12:12:20;;;;;;;13.13;8.82;;;;;;;;;;5010519;28;20050;-73
2023/12/04 12:14:46;;;;;;;13.77;9.05;;;;;;;;;;5009819;28;20065;-73
2023/12/04 12:17:13;;;;;;;17.10;9.55;;;;;;;;;;5002081;28;20050;-73
2023/12/04 12:19:39;;;;;;;14.40;8.63;;;;;;;;;;4999918;28;20046;-73
2023/12/04 12:22:05;;;;;;;14.00;8.85;;;;;;;;;;5001164;28;20081;-73
2023/12/04 12:24:32;;;;;;;13.18;9.00;;;;;;;;;;5011500;28;20415;-73
2023/12/04 12:26:58;;;;;;;14.18;9.00;;;;;;;;;;5002866;28;20051;-73
2023/12/04 12:29:24;;;;;;;14.15;8.93;;;;;;;;;;4992431;28;20144;-73
2023/12/04 12:31:51;;;;;;;13.60;8.60;;;;;;;;;;5003396;28;20440;-74
2023/12/04 12:34:17;;;;;;;12.25;8.15;;;;;;;;;;5012663;28;20088;-74
2023/12/04 12:36:43;;;;;;;14.20;9.52;;;;;;;;;;5015337;28;20065;-74
2023/12/04 12:39:09;;;;;;;12.75;8.40;;;;;;;;;;5010202;28;20132;-75
2023/12/04 12:41:36;;;;;;;13.65;9.65;;;;;;;;;;5008928;28;20421;-75
2023/12/04 12:44:03;;;;;;;13.93;8.95;;;;;;;;;;5014718;28;20050;-75
2023/12/04 12:46:29;;;;;;;16.80;9.55;;;;;;;;;;5009845;28;20042;-75
2023/12/04 12:48:55;;;;;;;14.60;8.98;;;;;;;;;;5004677;28;20157;-75
2023/12/04 12:51:21;;;;;;;17.08;8.88;;;;;;;;;;5013735;28;20125;-75
2023/12/04 12:53:48;;;;;;;13.50;9.52;;;;;;;;;;5011874;28;20053;-76
2023/12/04 12:56:14;;;;;;;14.63;8.93;;;;;;;;;;5014347;28;20049;-75
2023/12/04 12:58:41;;;;;;;13.85;9.00;;;;;;;;;;5011515;28;20050;-75
2023/12/04 13:01:11;;;;;;;12.75;8.98;;;;;;;;;;5013804;28;20488;-75
2023/12/04 13:03:37;;;;;;;14.40;8.77;;;;;;;;;;5014215;28;20121;-75
2023/12/04 13:06:04;;;;;;;13.65;8.75;;;;;;;;;;5014478;28;20060;-75
2023/12/04 13:08:30;;;;;;;15.15;9.18;;;;;;;;;;5012459;28;20049;-77
2023/12/04 13:10:56;;;;;;;13.52;8.43;;;;;;;;;;4998301;28;20046;-77
2023/12/04 13:13:22;;;;;;;13.60;8.77;;;;;;;;;;5008181;28;20047;-77
2023/12/04 13:15:48;;;;;;;13.98;9.50;;;;;;;;;;5009292;28;20096;-77
2023/12/04 13:18:14;;;;;;;13.40;8.98;;;;;;;;;;4998672;28;20054;-75
2023/12/04 13:20:40;;;;;;;14.32;9.52;;;;;;;;;;4995281;28;20066;-76
2023/12/04 13:23:07;;;;;;;17.17;9.13;;;;;;;;;;4996426;28;20049;-75
2023/12/04 13:25:33;;;;;;;13.55;8.60;;;;;;;;;;5014466;28;20114;-75
2023/12/04 13:27:59;;;;;;;14.43;9.20;;;;;;;;;;5014248;28;20071;-74
2023/12/04 13:30:25;;;;;;;14.45;9.80;;;;;;;;;;5008694;28;20046;-75
2023/12/04 13:32:51;;;;;;;14.68;10.10;;;;;;;;;;5006725;28;20046;-74
2023/12/04 13:35:18;;;;;;;14.02;9.02;;;;;;;;;;4998772;28;20043;-74
2023/12/04 13:37:44;;;;;;;14.27;9.10;;;;;;;;;;5009716;28;20065;-74
2023/12/04 13:40:15;;;;;;;14.20;8.88;;;;;;;;;;5012677;28;20049;-75
2023/12/04 13:45:26;;;;;;;16.90;9.48;;;;;;;;;;5014302;28;20053;-75
2023/12/04 13:47:56;;;;;;;14.15;9.48;;;;;;;;;;5011833;28;20054;-75
2023/12/04 13:50:22;;;;;;;15.20;10.05;;;;;;;;;;5011438;28;20466;-74
2023/12/04 13:52:56;;;;;;;14.88;9.43;;;;;;;;;;5013542;28;20416;-74
2023/12/04 13:55:36;;;;;;;14.98;9.85;;;;;;;;;;5013343;28;20495;-74
2023/12/04 14:00:28;;;;;;;15.55;8.73;;;;;;;;;;5012044;28;20137;-74
2023/12/04 14:03:03;;;;;;;14.50;9.30;;;;;;;;;;5012956;28;20419;-74
2023/12/04 14:05:30;;;;;;;16.40;9.98;;;;;;;;;;4996663;28;20109;-74
2023/12/04 14:07:58;;;;;;;13.82;9.43;;;;;;;;;;5012727;28;20050;-76
2023/12/04 14:10:25;;;;;;;17.02;10.38;;;;;;;;;;5013715;28;20395;-75
2023/12/04 14:12:51;;;;;;;15.43;9.55;;;;;;;;;;5011381;28;20050;-75
2023/12/04 14:15:18;;;;;;;15.68;9.90;;;;;;;;;;5003474;28;20061;-74
2023/12/04 14:17:46;;;;;;;14.95;9.40;;;;;;;;;;5011081;28;20069;-74
2023/12/04 14:20:12;;;;;;;15.90;10.48;;;;;;;;;;5008323;28;20053;-75
2023/12/04 14:22:39;;;;;;;17.73;10.25;;;;;;;;;;5000129;28;20069;-74